Time;durP1;ratioP1;P1;durP2;ratioP2;P2;SDS_P1;SDS_P2;PMS_P1;PMS_P2;Temp;Humidity;BMP_temperature;BMP_pressure;BME280_temperature;BME280_humidity;BME280_pressure;Samples;Min_cycle;Max_cycle;Signal;HPM_P1;HPM_P2
2023/10/13 00:02:07;;;;;;;0.22;0.10;;;27.10;31.80;;;;;;5000306;28;20030;-65
2023/10/13 00:04:38;;;;;;;1.40;0.17;;;27.00;33.60;;;;;;5005481;28;20030;-65
2023/10/13 00:07:09;;;;;;;0.70;0.30;;;27.40;31.90;;;;;;5007980;28;20037;-66
2023/10/13 00:09:39;;;;;;;1.98;0.13;;;27.50;31.40;;;;;;5003456;28;20102;-64
2023/10/13 00:12:13;;;;;;;1.13;0.20;;;27.30;31.90;;;;;;5006035;28;20026;-65
2023/10/13 00:14:45;;;;;;;0.60;0.30;;;27.70;32.60;;;;;;4998170;28;20109;-65
2023/10/13 00:17:20;;;;;;;0.00;0.00;;;27.90;31.50;;;;;;5005894;28;20052;-66
2023/10/13 00:19:51;;;;;;;0.65;0.20;;;27.90;31.00;;;;;;4988360;28;20082;-65
2023/10/13 00:22:19;;;;;;;1.52;0.13;;;27.90;32.10;;;;;;5000194;28;20038;-65
2023/10/13 00:24:47;;;;;;;0.80;0.22;;;27.90;31.50;;;;;;5003220;28;20496;-65
2023/10/13 00:27:30;;;;;;;0.68;0.25;;;27.80;30.50;;;;;;5001361;28;20033;-66
2023/10/13 00:32:51;;;;;;;0.73;0.20;;;27.60;29.70;;;;;;5008520;28;20103;-65
2023/10/13 00:35:25;;;;;;;2.10;0.30;;;27.70;31.60;;;;;;4998926;28;20088;-65
2023/10/13 00:37:57;;;;;;;2.53;0.20;;;28.00;31.20;;;;;;4999301;28;20558;-65
2023/10/13 00:43:45;;;;;;;2.55;0.20;;;28.40;31.90;;;;;;4999455;28;20034;-66
2023/10/13 00:48:33;;;;;;;1.35;0.30;;;28.60;30.40;;;;;;5000018;28;20045;-65
2023/10/13 00:51:08;;;;;;;3.30;0.30;;;28.50;31.40;;;;;;5004219;28;20140;-65
2023/10/13 00:53:44;;;;;;;0.50;0.22;;;28.60;31.00;;;;;;5006418;28;20053;-65
2023/10/13 00:56:22;;;;;;;0.57;0.17;;;28.70;31.60;;;;;;5006769;28;20358;-65
2023/10/13 00:58:53;;;;;;;1.10;0.10;;;28.80;30.10;;;;;;5004730;28;20041;-65
2023/10/13 01:01:32;;;;;;;0.88;0.20;;;28.60;30.00;;;;;;5008532;28;20025;-64
2023/10/13 01:04:01;;;;;;;0.45;0.13;;;28.60;31.70;;;;;;5006681;28;20490;-66
2023/10/13 01:06:29;;;;;;;0.13;0.10;;;28.50;30.20;;;;;;5004984;28;20482;-65
2023/10/13 01:09:13;;;;;;;0.60;0.25;;;28.60;30.10;;;;;;5005807;28;20080;-65
2023/10/13 01:11:52;;;;;;;0.50;0.20;;;28.50;29.80;;;;;;5012586;28;20034;-66
2023/10/13 01:14:20;;;;;;;0.73;0.25;;;28.50;29.90;;;;;;5006628;28;20034;-65
2023/10/13 01:16:52;;;;;;;0.80;0.20;;;28.30;29.90;;;;;;5004122;28;20028;-65
2023/10/13 01:19:24;;;;;;;0.60;0.20;;;28.20;31.30;;;;;;5009372;28;20026;-65
2023/10/13 01:22:01;;;;;;;1.55;0.35;;;28.70;32.80;;;;;;5007974;28;20038;-66
2023/10/13 01:24:35;;;;;;;0.63;0.17;;;29.10;31.00;;;;;;5005719;28;20022;-65
2023/10/13 01:27:24;;;;;;;0.60;0.30;;;29.40;30.20;;;;;;5001885;28;20030;-65
2023/10/13 01:30:10;;;;;;;1.40;0.38;;;29.20;29.60;;;;;;5008881;28;20034;-65
2023/10/13 01:32:45;;;;;;;0.95;0.40;;;29.30;29.70;;;;;;5007004;28;20133;-66
2023/10/13 01:35:12;;;;;;;0.90;0.22;;;29.40;29.80;;;;;;5008324;28;20383;-65
2023/10/13 01:37:40;;;;;;;1.48;0.20;;;29.50;31.40;;;;;;5001848;28;20446;-65
2023/10/13 01:40:07;;;;;;;0.93;0.40;;;30.00;29.50;;;;;;5004102;28;20065;-65
2023/10/13 01:42:36;;;;;;;0.73;0.20;;;30.00;29.70;;;;;;5007919;28;20427;-64
2023/10/13 01:45:07;;;;;;;0.30;0.17;;;30.40;30.70;;;;;;4986874;28;20025;-65
2023/10/13 01:47:35;;;;;;;0.73;0.30;;;30.60;29.20;;;;;;5003004;28;20129;-64
2023/10/13 01:50:13;;;;;;;2.80;0.40;;;30.40;29.40;;;;;;4986051;28;20811;-65
2023/10/13 01:52:43;;;;;;;1.75;0.20;;;30.50;29.70;;;;;;5008048;28;20034;-65
2023/10/13 01:55:11;;;;;;;0.57;0.15;;;30.80;29.00;;;;;;5003739;28;20036;-65
2023/10/13 01:57:41;;;;;;;1.40;0.22;;;30.80;28.80;;;;;;5005250;28;20096;-65
2023/10/13 02:00:18;;;;;;;2.15;0.30;;;30.50;28.40;;;;;;5007111;28;21313;-65
2023/10/13 02:02:50;;;;;;;0.28;0.10;;;30.50;28.50;;;;;;5009797;28;20586;-65
2023/10/13 02:05:18;;;;;;;0.80;0.20;;;30.70;28.80;;;;;;5000920;28;20116;-65
2023/10/13 02:07:45;;;;;;;1.38;0.30;;;30.80;30.30;;;;;;5007989;28;20510;-64
2023/10/13 02:10:13;;;;;;;2.08;0.50;;;31.10;29.40;;;;;;4989144;28;20061;-65
2023/10/13 02:12:43;;;;;;;1.38;0.40;;;31.10;29.30;;;;;;5001821;28;20041;-66
2023/10/13 02:15:26;;;;;;;0.93;0.30;;;31.10;29.50;;;;;;5004379;28;20022;-68
2023/10/13 02:17:54;;;;;;;3.20;0.40;;;31.10;29.20;;;;;;5004295;28;20026;-65
2023/10/13 02:20:25;;;;;;;1.08;0.30;;;31.20;29.80;;;;;;4999048;28;20041;-67
2023/10/13 02:22:53;;;;;;;1.70;0.30;;;31.10;29.20;;;;;;5002079;28;20042;-66
2023/10/13 02:25:42;;;;;;;0.80;0.30;;;31.10;29.80;;;;;;5008658;28;20026;-64
2023/10/13 02:28:21;;;;;;;1.10;0.20;;;31.40;29.60;;;;;;4984502;28;20502;-65
2023/10/13 02:30:50;;;;;;;0.77;0.20;;;31.50;28.90;;;;;;5000944;28;20041;-65
2023/10/13 02:33:21;;;;;;;1.10;0.20;;;31.20;28.60;;;;;;4999059;28;20046;-67
2023/10/13 02:35:55;;;;;;;3.55;0.47;;;31.10;28.70;;;;;;4999129;28;20485;-66
2023/10/13 02:41:05;;;;;;;3.55;0.35;;;31.20;29.50;;;;;;5004293;28;20034;-65
2023/10/13 02:43:37;;;;;;;3.40;0.20;;;31.50;29.50;;;;;;4998926;28;20497;-67
2023/10/13 02:46:07;;;;;;;0.82;0.20;;;31.60;29.60;;;;;;4987962;28;20046;-66
2023/10/13 02:48:40;;;;;;;1.40;0.40;;;31.20;29.00;;;;;;5003151;28;20438;-67
2023/10/13 02:51:18;;;;;;;3.17;0.30;;;31.10;29.30;;;;;;4997708;28;20357;-66
2023/10/13 02:53:49;;;;;;;0.43;0.20;;;31.40;29.40;;;;;;5002818;28;20506;-66
2023/10/13 02:56:20;;;;;;;0.65;0.20;;;31.20;28.50;;;;;;5004521;28;20489;-66
2023/10/13 02:59:05;;;;;;;1.10;0.30;;;31.20;29.20;;;;;;4996671;28;20501;-65
2023/10/13 03:01:36;;;;;;;1.65;0.20;;;31.20;29.90;;;;;;5007022;28;20034;-66
2023/10/13 03:04:08;;;;;;;1.13;0.28;;;31.30;29.40;;;;;;5002018;28;20120;-66
2023/10/13 03:06:39;;;;;;;0.63;0.25;;;31.30;29.50;;;;;;5000078;28;20033;-67
2023/10/13 03:09:14;;;;;;;0.35;0.15;;;31.60;29.80;;;;;;5003776;28;20025;-66
2023/10/13 03:11:42;;;;;;;0.77;0.15;;;31.50;29.80;;;;;;5005927;28;20029;-66
2023/10/13 03:14:23;;;;;;;1.20;0.47;;;31.20;29.90;;;;;;4989024;28;20050;-67
2023/10/13 03:17:05;;;;;;;1.48;0.10;;;31.00;30.00;;;;;;5007406;28;20025;-66
2023/10/13 03:19:34;;;;;;;1.83;0.17;;;31.00;29.90;;;;;;5005617;28;20041;-66
2023/10/13 03:22:10;;;;;;;1.42;0.30;;;31.50;30.00;;;;;;5006998;28;20137;-65
2023/10/13 03:24:59;;;;;;;0.52;0.10;;;31.40;29.70;;;;;;5008117;28;20022;-65
2023/10/13 03:27:40;;;;;;;2.22;0.40;;;31.40;30.20;;;;;;5007979;28;20021;-67
2023/10/13 03:30:14;;;;;;;0.60;0.30;;;31.30;29.60;;;;;;5005087;28;20034;-65
2023/10/13 03:32:54;;;;;;;0.80;0.20;;;31.30;29.50;;;;;;5002647;28;20144;-66
2023/10/13 03:35:24;;;;;;;3.60;0.35;;;31.40;29.70;;;;;;5002716;28;20026;-66
2023/10/13 03:37:52;;;;;;;2.63;0.20;;;31.40;30.50;;;;;;4996802;28;20026;-66
2023/10/13 03:45:32;;;;;;;1.13;0.28;;;31.40;29.70;;;;;;5000896;28;20593;-65
2023/10/13 03:47:59;;;;;;;1.58;0.20;;;31.20;30.30;;;;;;5003890;28;20490;-66
2023/10/13 03:50:32;;;;;;;1.65;0.30;;;31.10;30.00;;;;;;4982023;28;20026;-65
2023/10/13 03:53:00;;;;;;;1.63;0.20;;;31.20;30.50;;;;;;5000085;28;20038;-65
2023/10/13 03:55:34;;;;;;;2.60;0.40;;;31.20;30.60;;;;;;5000923;28;20176;-65
2023/10/13 03:58:03;;;;;;;2.40;0.60;;;31.30;30.70;;;;;;5001401;28;20132;-65
2023/10/13 04:00:31;;;;;;;1.13;0.30;;;31.20;30.00;;;;;;5003169;28;20073;-65
2023/10/13 04:03:16;;;;;;;0.63;0.28;;;31.20;30.30;;;;;;5007410;28;20344;-65
2023/10/13 04:06:00;;;;;;;2.45;0.25;;;31.30;30.00;;;;;;5004807;28;20030;-64
2023/10/13 04:32:32;;;;;;;1.17;0.28;;;31.10;30.60;;;;;;5004563;28;20022;-65
2023/10/13 04:37:52;;;;;;;2.17;0.20;;;30.30;29.60;;;;;;5003707;28;20065;-65
2023/10/13 04:40:35;;;;;;;1.20;0.50;;;30.00;29.70;;;;;;4998771;28;20753;-65
2023/10/13 04:43:32;;;;;;;0.70;0.30;;;29.70;29.70;;;;;;4992457;28;20819;-66
2023/10/13 04:45:55;;;;;;;1.17;0.20;;;29.90;30.30;;;;;;4994306;28;20034;-66
2023/10/13 04:50:58;;;;;;;0.68;0.63;;;29.80;29.90;;;;;;5004353;28;20502;-65
2023/10/13 05:04:21;;;;;;;2.20;0.38;;;28.80;30.20;;;;;;5000796;28;20060;-64
2023/10/13 06:28:42;;;;;;;2.05;0.60;;;25.80;36.20;;;;;;5004580;28;20438;-65
2023/10/13 06:31:28;;;;;;;5.53;2.75;;;25.60;37.00;;;;;;5006861;28;20021;-65
2023/10/13 06:33:56;;;;;;;4.82;2.25;;;25.60;37.00;;;;;;5004874;28;20115;-66
2023/10/13 06:36:23;;;;;;;3.50;2.03;;;25.60;37.20;;;;;;5003393;28;20032;-68
2023/10/13 06:39:20;;;;;;;2.03;0.80;;;25.60;36.80;;;;;;5000787;28;20022;-68
2023/10/13 06:41:40;;;;;;;2.42;0.73;;;25.70;37.10;;;;;;5000860;28;20037;-68
2023/10/13 06:44:14;;;;;;;3.88;0.68;;;25.60;37.50;;;;;;5010065;28;20022;-68
2023/10/13 06:46:43;;;;;;;2.38;0.57;;;25.50;37.00;;;;;;5008235;28;20117;-69
2023/10/13 06:49:12;;;;;;;2.95;0.40;;;25.50;36.90;;;;;;5010489;28;20026;-68
2023/10/13 06:51:40;;;;;;;1.10;0.40;;;25.30;36.90;;;;;;5010354;28;20025;-67
2023/10/13 06:54:19;;;;;;;1.00;0.20;;;25.20;37.30;;;;;;5009572;28;20034;-66
2023/10/13 06:56:51;;;;;;;1.75;0.35;;;25.20;37.20;;;;;;5005726;28;20056;-69
2023/10/13 06:59:19;;;;;;;1.88;0.30;;;25.00;37.80;;;;;;4999368;28;20483;-68
2023/10/13 07:01:48;;;;;;;3.85;0.47;;;24.90;37.80;;;;;;5007885;28;20125;-68
2023/10/13 07:04:16;;;;;;;2.90;0.30;;;24.70;38.20;;;;;;5007533;28;20038;-70
2023/10/13 07:06:50;;;;;;;1.83;0.30;;;24.60;38.50;;;;;;4991478;28;20505;-67
2023/10/13 07:12:16;;;;;;;1.75;0.47;;;24.20;38.80;;;;;;5004472;28;20034;-68
2023/10/13 07:14:53;;;;;;;2.33;0.35;;;24.00;39.00;;;;;;5008778;28;20406;-67
2023/10/13 07:17:23;;;;;;;0.68;0.28;;;23.90;39.40;;;;;;5001152;28;20030;-67
2023/10/13 07:22:57;;;;;;;1.23;0.30;;;23.70;40.00;;;;;;4973519;28;20075;-67
2023/10/13 07:25:26;;;;;;;1.08;0.40;;;23.70;40.00;;;;;;5001986;28;20022;-67
2023/10/13 07:27:54;;;;;;;1.83;0.40;;;23.60;40.10;;;;;;5000861;28;20065;-67
2023/10/13 07:30:26;;;;;;;1.88;0.40;;;23.50;40.10;;;;;;5004982;28;20116;-67
2023/10/13 07:32:57;;;;;;;2.05;0.25;;;23.50;40.20;;;;;;5002959;28;20045;-67
2023/10/13 07:35:25;;;;;;;1.92;0.32;;;23.40;40.40;;;;;;5000635;28;20108;-67
2023/10/13 07:37:53;;;;;;;1.50;0.32;;;23.20;41.20;;;;;;5003245;28;20034;-66
2023/10/13 07:43:01;;;;;;;0.98;0.35;;;22.90;41.30;;;;;;5001608;28;20037;-67
2023/10/13 07:45:37;;;;;;;3.40;0.40;;;22.90;41.20;;;;;;4999944;28;20030;-67
2023/10/13 07:48:21;;;;;;;2.22;0.40;;;22.80;41.30;;;;;;5002186;28;20068;-67
2023/10/13 07:51:18;;;;;;;1.98;0.30;;;22.60;41.70;;;;;;4999771;28;20029;-68
2023/10/13 07:53:49;;;;;;;1.77;0.35;;;22.40;42.20;;;;;;5001679;28;20037;-67
2023/10/13 07:56:20;;;;;;;1.85;0.40;;;22.40;42.20;;;;;;5005757;28;20061;-67
2023/10/13 07:59:00;;;;;;;2.13;0.55;;;22.30;42.40;;;;;;5005822;28;20076;-67
2023/10/13 08:01:28;;;;;;;2.17;0.38;;;22.20;42.40;;;;;;5007293;28;20030;-67
2023/10/13 08:04:22;;;;;;;5.97;0.50;;;22.10;42.50;;;;;;5004356;28;20018;-67
2023/10/13 08:06:58;;;;;;;2.40;0.57;;;22.00;42.80;;;;;;5004892;28;20032;-66
2023/10/13 08:09:40;;;;;;;6.53;0.50;;;21.80;43.80;;;;;;4999138;28;20031;-66
2023/10/13 08:12:11;;;;;;;2.00;0.40;;;21.70;43.40;;;;;;4995781;28;20065;-66
2023/10/13 08:14:41;;;;;;;1.48;0.70;;;21.70;43.60;;;;;;5001907;28;20487;-66
2023/10/13 08:17:14;;;;;;;2.50;0.70;;;21.60;43.80;;;;;;5007540;28;20452;-67
2023/10/13 08:27:36;;;;;;;1.95;0.47;;;21.20;44.30;;;;;;5004410;28;20038;-66
2023/10/13 08:33:24;;;;;;;2.10;0.60;;;21.00;45.00;;;;;;5007599;28;20091;-67
2023/10/13 08:35:54;;;;;;;2.95;1.00;;;20.90;45.30;;;;;;5004120;28;20392;-67
2023/10/13 08:38:28;;;;;;;6.80;3.83;;;20.90;45.50;;;;;;5009928;28;20029;-66
2023/10/13 08:43:50;;;;;;;4.20;2.13;;;20.80;46.00;;;;;;5006991;28;20076;-66
2023/10/13 08:46:25;;;;;;;9.27;5.35;;;20.80;45.90;;;;;;4987786;28;20025;-67
2023/10/13 08:49:15;;;;;;;6.75;2.53;;;20.70;46.30;;;;;;5010672;28;20026;-68
2023/10/13 08:51:49;;;;;;;3.08;0.98;;;20.60;46.60;;;;;;5012850;28;20030;-67
2023/10/13 08:54:33;;;;;;;3.50;0.82;;;20.50;46.80;;;;;;4991858;28;20410;-69
2023/10/13 08:57:30;;;;;;;4.45;0.80;;;20.40;47.10;;;;;;5012000;28;20022;-66
2023/10/13 09:00:26;;;;;;;6.35;2.03;;;20.30;47.30;;;;;;5008378;28;20052;-68
2023/10/13 09:02:59;;;;;;;9.75;4.03;;;20.30;47.30;;;;;;5000643;28;20053;-67
2023/10/13 09:06:00;;;;;;;4.00;1.90;;;20.30;47.60;;;;;;4989716;28;20042;-67
2023/10/13 09:09:04;;;;;;;5.28;3.38;;;20.20;47.70;;;;;;4994000;28;20034;-67
2023/10/13 09:11:48;;;;;;;6.78;3.03;;;20.10;48.00;;;;;;4995551;28;20045;-67
2023/10/13 09:14:33;;;;;;;3.72;0.98;;;20.10;48.00;;;;;;5009884;28;20045;-66
2023/10/13 09:17:10;;;;;;;2.92;1.50;;;20.10;48.10;;;;;;5012410;28;20379;-67
2023/10/13 09:20:19;;;;;;;5.63;1.40;;;20.10;48.40;;;;;;5009674;28;20026;-67
2023/10/13 09:22:38;;;;;;;2.10;1.00;;;19.90;48.60;;;;;;5011447;28;20124;-67
2023/10/13 09:25:06;;;;;;;3.50;0.77;;;19.90;49.00;;;;;;5013114;28;20053;-68
2023/10/13 09:27:37;;;;;;;2.67;0.55;;;19.80;49.00;;;;;;5013194;28;20034;-67
2023/10/13 09:30:23;;;;;;;1.65;0.60;;;19.90;49.20;;;;;;4996492;28;20030;-67
2023/10/13 09:33:04;;;;;;;2.55;0.60;;;19.80;49.10;;;;;;5013176;28;20120;-67
2023/10/13 09:35:37;;;;;;;1.70;0.50;;;19.70;49.50;;;;;;5012634;28;20030;-67
2023/10/13 09:38:04;;;;;;;4.03;0.77;;;19.70;49.60;;;;;;5010789;28;20060;-68
2023/10/13 09:40:37;;;;;;;3.55;0.60;;;19.60;50.00;;;;;;5007694;28;20037;-68
2023/10/13 09:43:14;;;;;;;2.58;0.43;;;19.50;50.30;;;;;;4993220;28;20080;-67
2023/10/13 09:48:40;;;;;;;4.25;0.50;;;19.40;50.90;;;;;;5011782;28;20255;-68
2023/10/13 09:51:22;;;;;;;1.55;0.65;;;19.40;51.00;;;;;;5008709;28;20030;-67
2023/10/13 09:54:23;;;;;;;3.53;0.50;;;19.30;51.10;;;;;;5011989;28;20064;-66
2023/10/13 09:57:02;;;;;;;4.25;0.68;;;19.20;51.50;;;;;;4987480;28;20045;-67
2023/10/13 09:59:40;;;;;;;3.10;0.90;;;19.20;51.80;;;;;;5008347;28;20365;-67
2023/10/13 10:02:10;;;;;;;3.80;0.75;;;19.20;51.80;;;;;;5010080;28;20030;-68
2023/10/13 10:04:44;;;;;;;3.30;0.60;;;19.10;52.00;;;;;;5008485;28;20069;-68
2023/10/13 10:07:19;;;;;;;4.10;0.70;;;19.10;52.20;;;;;;5005716;28;20022;-67
2023/10/13 10:09:57;;;;;;;3.67;0.70;;;19.00;52.20;;;;;;5000932;28;20038;-67
2023/10/13 10:12:39;;;;;;;2.58;0.40;;;19.00;52.90;;;;;;5009595;28;20021;-68
2023/10/13 10:15:43;;;;;;;1.65;0.50;;;18.90;52.50;;;;;;5010026;28;20076;-68
2023/10/13 10:18:27;;;;;;;2.45;0.65;;;18.90;52.80;;;;;;5008926;28;20033;-68
2023/10/13 10:21:07;;;;;;;5.35;0.70;;;18.90;53.20;;;;;;5006509;28;20030;-68
2023/10/13 10:23:43;;;;;;;4.32;0.63;;;18.80;53.40;;;;;;5011669;28;20049;-68
2023/10/13 10:26:25;;;;;;;3.42;1.02;;;18.80;53.60;;;;;;5009119;28;20077;-66
2023/10/13 10:28:54;;;;;;;2.20;0.70;;;18.80;53.10;;;;;;5009510;28;20512;-66
2023/10/13 10:31:35;;;;;;;1.27;0.50;;;19.00;52.70;;;;;;5011464;28;20022;-67
2023/10/13 10:34:18;;;;;;;1.50;0.40;;;19.10;52.10;;;;;;5010107;28;20140;-67
2023/10/13 10:36:54;;;;;;;2.85;0.50;;;19.00;52.30;;;;;;5008723;28;20048;-69
2023/10/13 10:39:33;;;;;;;12.07;1.25;;;19.00;52.20;;;;;;5007580;28;20065;-67
2023/10/13 10:42:17;;;;;;;2.58;0.45;;;19.20;52.20;;;;;;5005628;28;20451;-67
2023/10/13 10:44:44;;;;;;;2.97;0.70;;;19.10;52.60;;;;;;5012730;28;20038;-67
2023/10/13 10:47:31;;;;;;;3.03;0.40;;;18.90;52.90;;;;;;5010921;28;20030;-67
2023/10/13 10:50:36;;;;;;;4.40;0.63;;;18.70;53.30;;;;;;5011680;28;20435;-69
2023/10/13 10:52:57;;;;;;;3.75;0.80;;;18.70;53.40;;;;;;5005554;28;20097;-68
2023/10/13 10:55:28;;;;;;;3.40;0.57;;;18.70;53.40;;;;;;4996777;28;20107;-67
2023/10/13 10:58:05;;;;;;;2.40;0.50;;;18.90;52.90;;;;;;5000166;28;20026;-67
2023/10/13 11:00:45;;;;;;;2.03;0.60;;;18.90;53.20;;;;;;5006219;28;20030;-67
2023/10/13 11:03:13;;;;;;;2.65;0.50;;;18.80;53.20;;;;;;4999774;28;20108;-67
2023/10/13 11:05:50;;;;;;;1.10;0.40;;;18.70;53.90;;;;;;5003589;28;20018;-67
2023/10/13 11:08:37;;;;;;;2.75;0.80;;;18.60;54.80;;;;;;5003762;28;20037;-67
2023/10/13 11:11:05;;;;;;;2.20;0.52;;;18.70;54.00;;;;;;4984040;28;20033;-68
2023/10/13 11:13:54;;;;;;;1.73;0.60;;;18.70;54.00;;;;;;4996298;28;20487;-67
2023/10/13 11:16:34;;;;;;;2.60;0.45;;;18.60;54.80;;;;;;5010181;28;20042;-68
2023/10/13 11:19:05;;;;;;;3.05;0.57;;;18.60;54.20;;;;;;5008540;28;20108;-68
2023/10/13 11:21:32;;;;;;;1.30;0.40;;;18.50;54.50;;;;;;4998457;28;20370;-68
2023/10/13 11:24:08;;;;;;;1.88;0.60;;;18.40;54.90;;;;;;5004796;28;20034;-68
2023/10/13 11:26:54;;;;;;;3.03;0.50;;;18.20;55.40;;;;;;5007813;28;20037;-68
2023/10/13 11:29:33;;;;;;;3.65;0.52;;;18.10;55.80;;;;;;5002726;28;20475;-68
2023/10/13 11:32:02;;;;;;;3.70;0.60;;;18.00;56.20;;;;;;5007825;28;20029;-68
2023/10/13 11:34:39;;;;;;;0.43;0.30;;;18.00;56.40;;;;;;5007770;28;20034;-68
2023/10/13 11:39:52;;;;;;;1.63;0.60;;;17.90;56.60;;;;;;5001230;28;20041;-67
2023/10/13 11:42:19;;;;;;;2.63;0.50;;;17.90;56.80;;;;;;4999562;28;20030;-68
2023/10/13 11:45:01;;;;;;;1.92;0.60;;;17.90;56.90;;;;;;5002799;28;20097;-69
2023/10/13 11:47:47;;;;;;;3.22;0.68;;;17.90;57.10;;;;;;5000586;28;20038;-68
2023/10/13 11:50:31;;;;;;;4.75;1.00;;;17.90;57.00;;;;;;5002118;28;20026;-68
2023/10/13 11:53:00;;;;;;;1.08;0.50;;;17.90;57.60;;;;;;5004582;28;20048;-67
2023/10/13 11:55:27;;;;;;;1.48;0.60;;;17.90;56.90;;;;;;5010761;28;20022;-68
2023/10/13 11:57:59;;;;;;;3.72;0.60;;;18.00;57.20;;;;;;5000441;28;20045;-68
2023/10/13 12:00:50;;;;;;;6.22;0.68;;;17.90;57.70;;;;;;5006762;28;20032;-68
2023/10/13 12:08:54;;;;;;;1.10;0.35;;;17.60;58.20;;;;;;4966817;28;20045;-69
2023/10/13 12:11:38;;;;;;;5.25;0.80;;;17.40;58.40;;;;;;5010338;28;20062;-69
2023/10/13 12:14:16;;;;;;;8.27;0.90;;;17.30;59.50;;;;;;4992639;28;20100;-68
2023/10/13 12:16:52;;;;;;;2.42;0.70;;;17.40;59.70;;;;;;5006682;28;20466;-67
2023/10/13 12:19:24;;;;;;;2.85;0.60;;;17.40;59.20;;;;;;5008004;28;20070;-67
2023/10/13 12:21:55;;;;;;;1.45;0.73;;;17.20;60.30;;;;;;5011249;28;20026;-67
2023/10/13 12:27:35;;;;;;;2.28;0.50;;;17.00;61.00;;;;;;5007554;28;20368;-67
2023/10/13 12:30:13;;;;;;;3.38;0.63;;;16.90;61.60;;;;;;4988407;28;20030;-67
2023/10/13 12:32:51;;;;;;;2.15;0.52;;;16.90;62.00;;;;;;5007677;28;20048;-67
2023/10/13 12:35:29;;;;;;;2.63;0.45;;;16.90;62.60;;;;;;5003476;28;20036;-67
2023/10/13 12:38:05;;;;;;;1.52;0.50;;;16.80;62.80;;;;;;5006331;28;20033;-68
2023/10/13 12:49:04;;;;;;;3.40;0.50;;;16.70;63.30;;;;;;5009446;28;20033;-67
2023/10/13 12:56:44;;;;;;;2.67;1.05;;;16.50;64.30;;;;;;5011306;28;20092;-67
2023/10/13 12:59:13;;;;;;;2.33;0.80;;;16.30;64.70;;;;;;5010212;28;20411;-68
2023/10/13 13:01:44;;;;;;;4.65;0.82;;;16.30;65.20;;;;;;5014881;28;20525;-68
2023/10/13 13:04:19;;;;;;;4.60;0.63;;;16.20;65.30;;;;;;4994383;28;20482;-67
2023/10/13 13:06:49;;;;;;;2.83;0.60;;;16.20;65.50;;;;;;5012737;28;20029;-68
2023/10/13 13:09:25;;;;;;;4.53;0.75;;;16.10;65.60;;;;;;5011106;28;20034;-68
2023/10/13 13:11:57;;;;;;;3.70;0.70;;;15.90;66.50;;;;;;5011449;28;20034;-67
2023/10/13 13:14:34;;;;;;;4.57;0.70;;;15.90;67.30;;;;;;4994376;28;20124;-67
2023/10/13 13:17:04;;;;;;;6.28;1.02;;;16.10;67.20;;;;;;5005167;28;20030;-68
2023/10/13 13:19:35;;;;;;;4.47;0.80;;;16.30;66.60;;;;;;5010055;28;20029;-67
2023/10/13 13:22:13;;;;;;;3.47;0.57;;;16.10;66.80;;;;;;5012179;28;20181;-67
2023/10/13 13:24:45;;;;;;;2.00;0.50;;;16.00;67.40;;;;;;5004128;28;20030;-67
2023/10/13 13:27:13;;;;;;;2.20;0.52;;;15.90;67.50;;;;;;5012075;28;20042;-67
2023/10/13 13:29:44;;;;;;;1.42;0.77;;;15.80;68.00;;;;;;5010890;28;20125;-67
2023/10/13 13:32:24;;;;;;;3.58;0.60;;;15.80;68.10;;;;;;5011824;28;20080;-66
2023/10/13 13:35:13;;;;;;;2.25;0.63;;;15.80;68.50;;;;;;5011272;28;20064;-67
2023/10/13 13:37:43;;;;;;;1.83;0.55;;;15.80;68.60;;;;;;5008879;28;20017;-67
2023/10/13 13:40:18;;;;;;;2.08;0.50;;;15.80;68.90;;;;;;5012272;28;20041;-67
2023/10/13 13:42:45;;;;;;;5.28;0.90;;;15.80;69.10;;;;;;4994208;28;20034;-67
2023/10/13 13:45:31;;;;;;;4.03;0.60;;;15.80;68.70;;;;;;5009433;28;20034;-67
2023/10/13 13:47:59;;;;;;;3.30;0.75;;;15.80;68.80;;;;;;5004244;28;20160;-69
2023/10/13 13:50:32;;;;;;;1.77;0.50;;;15.80;68.20;;;;;;5009129;28;20029;-67
2023/10/13 13:53:08;;;;;;;1.10;0.57;;;15.80;68.80;;;;;;5008600;28;20053;-67
2023/10/13 13:55:39;;;;;;;3.03;0.70;;;15.80;68.50;;;;;;4992148;28;20391;-67
2023/10/13 13:58:08;;;;;;;1.55;0.50;;;15.80;68.40;;;;;;5009430;28;20033;-66
2023/10/13 14:00:38;;;;;;;3.97;0.50;;;15.90;68.20;;;;;;5012410;28;20034;-67
2023/10/13 14:03:12;;;;;;;4.53;0.57;;;15.90;68.10;;;;;;5007373;28;20690;-67
2023/10/13 14:05:43;;;;;;;5.03;0.50;;;15.90;68.00;;;;;;5009126;28;20030;-67
2023/10/13 14:08:15;;;;;;;2.92;0.50;;;15.90;68.10;;;;;;5007054;28;20030;-65
2023/10/13 14:16:23;;;;;;;2.10;0.50;;;15.70;69.20;;;;;;5008332;28;20103;-67
2023/10/13 14:18:52;;;;;;;2.30;0.50;;;15.70;68.70;;;;;;4991459;28;20030;-66
2023/10/13 14:21:22;;;;;;;2.92;0.80;;;15.70;69.00;;;;;;5010003;28;20088;-66
2023/10/13 14:23:55;;;;;;;3.92;0.60;;;15.70;69.10;;;;;;5009838;28;20160;-66
2023/10/13 14:26:25;;;;;;;2.78;0.40;;;15.60;69.10;;;;;;5013423;28;20022;-67
2023/10/13 14:31:52;;;;;;;3.60;0.57;;;15.40;70.10;;;;;;4969056;28;20113;-66
2023/10/13 14:34:21;;;;;;;3.53;0.82;;;15.40;70.60;;;;;;5012839;28;20041;-66
2023/10/13 14:36:49;;;;;;;3.65;0.73;;;15.40;71.00;;;;;;5012474;28;20037;-66
2023/10/13 14:39:16;;;;;;;1.17;0.60;;;15.60;70.10;;;;;;5008733;28;20064;-67
2023/10/13 14:41:46;;;;;;;2.60;0.77;;;15.60;70.30;;;;;;5011631;28;20022;-67
2023/10/13 14:44:14;;;;;;;1.95;0.60;;;15.60;70.20;;;;;;5012999;28;20037;-68
2023/10/13 14:46:42;;;;;;;2.25;0.60;;;15.50;70.80;;;;;;5012560;28;20387;-67
2023/10/13 14:49:09;;;;;;;5.50;1.00;;;15.20;71.30;;;;;;5006532;28;20116;-67
2023/10/13 14:51:39;;;;;;;4.50;0.75;;;15.00;72.10;;;;;;5009935;28;20029;-67
2023/10/13 14:54:07;;;;;;;3.83;1.13;;;14.70;73.00;;;;;;5009237;28;20038;-68
2023/10/13 14:56:34;;;;;;;3.75;0.80;;;14.60;73.80;;;;;;5008370;28;20487;-67
2023/10/13 14:59:04;;;;;;;4.55;0.90;;;14.70;74.50;;;;;;5009946;28;20402;-68
2023/10/13 15:01:32;;;;;;;3.60;0.93;;;14.70;74.10;;;;;;5009270;28;20693;-67
2023/10/13 15:03:59;;;;;;;4.50;0.80;;;14.70;73.90;;;;;;4993269;28;20127;-67
2023/10/13 15:06:30;;;;;;;3.08;0.60;;;14.60;74.00;;;;;;5004709;28;20491;-67
2023/10/13 15:08:59;;;;;;;2.55;0.50;;;14.60;74.40;;;;;;4987809;28;20038;-67
2023/10/13 15:11:35;;;;;;;3.45;0.80;;;14.70;74.10;;;;;;4996005;28;20060;-67
2023/10/13 15:14:07;;;;;;;3.95;1.15;;;14.60;73.40;;;;;;5003978;28;20038;-68
2023/10/13 15:16:35;;;;;;;4.15;0.82;;;14.50;73.50;;;;;;5008684;28;20032;-67
2023/10/13 15:19:06;;;;;;;2.42;0.52;;;14.50;73.90;;;;;;5004823;28;20032;-67
2023/10/13 15:21:37;;;;;;;3.25;0.70;;;14.50;74.20;;;;;;5009870;28;20053;-67
2023/10/13 15:24:13;;;;;;;2.30;0.57;;;14.50;74.50;;;;;;5009654;28;20053;-67
2023/10/13 15:26:52;;;;;;;3.90;0.77;;;14.50;74.90;;;;;;5008138;28;20033;-67
2023/10/13 15:29:35;;;;;;;1.35;0.45;;;14.50;74.90;;;;;;5009866;28;20119;-68
2023/10/13 15:34:31;;;;;;;4.60;1.40;;;14.70;74.60;;;;;;5010068;28;20470;-67
2023/10/13 15:37:00;;;;;;;3.35;0.52;;;14.70;74.30;;;;;;5008127;28;20061;-67
2023/10/13 15:39:28;;;;;;;4.25;0.95;;;14.70;74.20;;;;;;5010146;28;20026;-67
2023/10/13 15:41:59;;;;;;;3.78;0.77;;;14.70;74.30;;;;;;5012267;28;20053;-67
2023/10/13 15:44:29;;;;;;;2.13;0.65;;;14.60;73.40;;;;;;5004670;28;20030;-67
2023/10/13 15:47:02;;;;;;;2.28;0.60;;;14.60;74.20;;;;;;5011901;28;20026;-68
2023/10/13 15:49:32;;;;;;;3.38;0.88;;;14.50;74.30;;;;;;5009703;28;20032;-66
2023/10/13 15:51:59;;;;;;;2.75;0.60;;;14.50;75.10;;;;;;5000992;28;20908;-66
2023/10/13 15:54:26;;;;;;;2.72;0.90;;;14.50;75.20;;;;;;5009239;28;20045;-67
2023/10/13 15:56:57;;;;;;;2.05;0.70;;;14.40;75.50;;;;;;5006236;28;20030;-66
2023/10/13 15:59:24;;;;;;;3.15;0.63;;;14.40;75.80;;;;;;5010882;28;20050;-67
2023/10/13 16:02:00;;;;;;;6.18;1.23;;;14.40;76.00;;;;;;4988352;28;20064;-68
2023/10/13 16:04:27;;;;;;;3.83;0.88;;;14.50;75.80;;;;;;5006584;28;20128;-67
2023/10/13 16:06:55;;;;;;;5.50;0.80;;;14.60;75.70;;;;;;5010325;28;20092;-67
2023/10/13 16:09:27;;;;;;;4.80;0.93;;;14.80;74.50;;;;;;5009737;28;20446;-67
2023/10/13 16:11:54;;;;;;;6.22;1.10;;;15.00;73.70;;;;;;5010471;28;20054;-67
2023/10/13 16:14:22;;;;;;;2.63;0.80;;;14.80;73.90;;;;;;5007519;28;20052;-67
2023/10/13 16:16:53;;;;;;;3.45;0.93;;;14.60;75.30;;;;;;5009054;28;20044;-66
2023/10/13 16:19:23;;;;;;;3.30;0.80;;;14.50;76.00;;;;;;5007433;28;20113;-66
2023/10/13 16:21:54;;;;;;;2.17;0.75;;;14.20;77.00;;;;;;5004227;28;20033;-67
2023/10/13 16:24:22;;;;;;;4.60;0.70;;;14.20;77.00;;;;;;5007364;28;20034;-66
2023/10/13 16:26:55;;;;;;;3.38;0.82;;;14.10;77.70;;;;;;5008284;28;20506;-66
2023/10/13 16:29:23;;;;;;;3.58;1.17;;;14.00;78.20;;;;;;5011506;28;20105;-67
2023/10/13 16:31:50;;;;;;;4.35;1.33;;;14.00;78.60;;;;;;5013547;28;20018;-65
2023/10/13 16:34:18;;;;;;;3.88;1.00;;;14.40;77.50;;;;;;5012270;28;20038;-67
2023/10/13 16:36:47;;;;;;;4.20;1.10;;;14.50;76.60;;;;;;5013592;28;20088;-65
2023/10/13 16:39:15;;;;;;;3.95;1.30;;;14.40;77.60;;;;;;5010613;28;20025;-67
2023/10/13 16:41:46;;;;;;;5.40;1.17;;;14.40;77.90;;;;;;5013427;28;20042;-67
2023/10/13 16:44:13;;;;;;;3.78;1.10;;;14.30;78.00;;;;;;5012254;28;20034;-67